createdAt,value
2019-03-03T00:01:01.453Z,100.00
2019-03-03T00:03:47.178Z,100.00
2019-03-03T00:06:13.012Z,100.00
2019-03-03T00:08:38.865Z,100.00
2019-03-03T00:11:04.706Z,100.00
2019-03-03T00:13:30.557Z,100.00
2019-03-03T00:15:56.401Z,100.00
2019-03-03T00:18:22.207Z,100.00
2019-03-03T00:20:48.055Z,100.00
2019-03-03T00:23:13.891Z,100.00
2019-03-03T00:25:39.975Z,100.00
2019-03-03T00:28:07.487Z,100.00
2019-03-03T00:30:53.292Z,100.00
2019-03-03T00:33:38.988Z,100.00
2019-03-03T00:39:18.838Z,100.00
2019-03-03T00:44:40.412Z,100.00
2019-03-03T00:47:08.135Z,100.00
2019-03-03T00:49:38.351Z,100.00
2019-03-03T00:52:08.934Z,100.00
2019-03-03T00:54:42.436Z,100.00
2019-03-03T00:57:15.950Z,100.00
2019-03-03T00:59:43.683Z,100.00
2019-03-03T01:02:20.027Z,100.00
2019-03-03T01:04:50.251Z,100.00
2019-03-03T01:07:26.524Z,100.00
2019-03-03T01:09:57.019Z,100.00
2019-03-03T01:12:25.061Z,100.00
2019-03-03T01:14:52.799Z,100.00
2019-03-03T01:17:23.549Z,100.00
2019-03-03T01:19:51.283Z,100.00
2019-03-03T01:22:31.185Z,100.00
2019-03-03T01:24:57.002Z,100.00
2019-03-03T01:27:23.044Z,100.00
2019-03-03T01:29:48.864Z,100.00
2019-03-03T01:32:14.677Z,100.00
2019-03-03T01:34:40.504Z,100.00
2019-03-03T01:37:06.313Z,100.00
2019-03-03T01:39:32.134Z,100.00
2019-03-03T01:41:57.939Z,100.00
2019-03-03T01:44:23.769Z,100.00
2019-03-03T01:46:49.766Z,100.00
2019-03-03T01:49:15.608Z,100.00
2019-03-03T01:51:41.445Z,100.00
2019-03-03T01:54:07.285Z,100.00
2019-03-03T01:56:33.096Z,100.00
2019-03-03T01:58:58.899Z,100.00
2019-03-03T02:01:24.730Z,100.00
2019-03-03T02:03:50.535Z,100.00
2019-03-03T02:06:16.362Z,100.00
2019-03-03T02:08:42.266Z,100.00
2019-03-03T02:11:08.108Z,100.00
2019-03-03T02:13:33.941Z,100.00
2019-03-03T02:15:59.886Z,100.00
2019-03-03T02:18:25.902Z,100.00
2019-03-03T02:20:51.745Z,100.00
2019-03-03T02:23:17.549Z,100.00
2019-03-03T02:25:43.488Z,100.00
2019-03-03T02:28:09.300Z,100.00
2019-03-03T02:30:35.939Z,100.00
2019-03-03T02:33:01.749Z,100.00
2019-03-03T02:35:27.616Z,100.00
2019-03-03T02:37:53.431Z,100.00
2019-03-03T02:40:19.244Z,100.00
2019-03-03T02:42:45.161Z,100.00
2019-03-03T02:45:12.860Z,100.00
2019-03-03T02:47:38.724Z,100.00
2019-03-03T02:50:07.738Z,100.00
2019-03-03T02:52:33.572Z,100.00
2019-03-03T02:54:59.382Z,100.00
2019-03-03T02:57:25.207Z,100.00
2019-03-03T02:59:51.017Z,100.00
2019-03-03T03:02:18.729Z,100.00
2019-03-03T03:04:44.553Z,100.00
2019-03-03T03:07:17.917Z,100.00
2019-03-03T03:09:51.647Z,100.00
2019-03-03T03:12:19.397Z,100.00
2019-03-03T03:14:47.131Z,100.00
2019-03-03T03:20:10.109Z,100.00
2019-03-03T03:22:55.821Z,100.00
2019-03-03T03:25:41.517Z,100.00
2019-03-03T03:28:47.125Z,100.00
2019-03-03T03:34:40.045Z,100.00
2019-03-03T03:37:25.736Z,100.00
2019-03-03T03:40:11.444Z,100.00
2019-03-03T03:42:57.135Z,100.00
2019-03-03T03:56:41.478Z,100.00
2019-03-03T03:59:27.180Z,100.00
2019-03-03T04:02:32.751Z,100.00
2019-03-03T04:08:12.563Z,100.00
2019-03-03T04:10:58.276Z,100.00
2019-03-03T04:14:03.851Z,100.00
2019-03-03T04:17:09.447Z,100.00
2019-03-03T04:25:05.734Z,100.00
2019-03-03T04:27:51.418Z,100.00
2019-03-03T04:36:04.939Z,100.00
2019-03-03T04:41:37.976Z,100.00
2019-03-03T04:47:11.014Z,100.00
2019-03-03T04:49:56.704Z,100.00
2019-03-03T04:52:55.603Z,100.00
2019-03-03T04:58:28.677Z,100.00
2019-03-03T05:01:14.365Z,100.00
2019-03-03T05:04:19.966Z,100.00
2019-03-03T05:07:25.549Z,100.00
2019-03-03T05:10:11.242Z,100.00
2019-03-03T05:12:56.940Z,100.00
2019-03-03T05:18:29.986Z,100.00
2019-03-03T05:20:55.816Z,100.00
2019-03-03T05:23:21.661Z,100.00
2019-03-03T05:26:07.445Z,100.00
2019-03-03T05:28:53.153Z,100.00
2019-03-03T05:31:38.966Z,100.00
2019-03-03T05:34:24.701Z,100.00
2019-03-03T05:37:10.395Z,100.00
2019-03-03T05:39:36.527Z,100.00
2019-03-03T05:42:02.364Z,100.00
2019-03-03T05:44:28.195Z,100.00
2019-03-03T05:46:54.031Z,100.00
2019-03-03T05:49:19.857Z,100.00
2019-03-03T05:51:45.687Z,100.00
2019-03-03T05:54:11.500Z,100.00
2019-03-03T05:56:37.297Z,100.00
2019-03-03T05:59:23.123Z,100.00
2019-03-03T06:01:48.963Z,100.00
2019-03-03T06:04:14.748Z,100.00
2019-03-03T06:06:40.604Z,100.00
2019-03-03T06:09:06.399Z,100.00
2019-03-03T06:11:32.632Z,100.00
2019-03-03T06:14:18.363Z,100.00
2019-03-03T06:17:04.085Z,100.00
2019-03-03T06:19:29.917Z,100.00
2019-03-03T06:21:55.768Z,100.00
2019-03-03T06:24:21.576Z,100.00
2019-03-03T06:26:47.407Z,100.00
2019-03-03T06:29:13.226Z,100.00
2019-03-03T06:31:39.046Z,100.00
2019-03-03T06:34:04.888Z,100.00
2019-03-03T06:36:30.730Z,100.00
2019-03-03T06:38:56.553Z,100.00
2019-03-03T06:41:22.378Z,100.00
2019-03-03T06:43:48.231Z,100.00
2019-03-03T06:46:14.069Z,100.00
2019-03-03T06:48:39.893Z,100.00
2019-03-03T06:51:05.732Z,100.00
2019-03-03T06:53:31.587Z,100.00
2019-03-03T06:55:57.362Z,100.00
2019-03-03T06:58:23.187Z,100.00
2019-03-03T07:00:49.009Z,100.00
2019-03-03T07:03:14.848Z,100.00
2019-03-03T07:05:40.657Z,100.00
2019-03-03T07:08:06.495Z,100.00
2019-03-03T07:10:32.321Z,100.00
2019-03-03T07:12:58.148Z,100.00
2019-03-03T07:15:23.979Z,100.00
2019-03-03T07:17:49.799Z,100.00
2019-03-03T07:20:15.621Z,100.00
2019-03-03T07:22:41.424Z,100.00
2019-03-03T07:25:48.908Z,100.00
2019-03-03T07:28:34.624Z,100.00
2019-03-03T07:31:00.473Z,100.00
2019-03-03T07:33:46.157Z,100.00
2019-03-03T07:36:11.985Z,100.00
2019-03-03T07:38:37.801Z,100.00
2019-03-03T07:41:03.628Z,100.00
2019-03-03T07:43:29.439Z,100.00
2019-03-03T07:45:55.255Z,100.00
2019-03-03T07:48:21.076Z,100.00
2019-03-03T07:50:46.924Z,100.00
2019-03-03T07:53:12.745Z,100.00
2019-03-03T07:55:38.591Z,100.00
2019-03-03T08:01:11.720Z,100.00
2019-03-03T08:03:37.541Z,100.00
2019-03-03T08:06:03.387Z,100.00
2019-03-03T08:08:29.223Z,100.00
2019-03-03T08:10:55.042Z,100.00
2019-03-03T08:13:20.862Z,100.00
2019-03-03T08:15:46.670Z,100.00
2019-03-03T08:18:12.495Z,100.00
2019-03-03T08:20:38.310Z,100.00
2019-03-03T08:23:24.126Z,100.00
2019-03-03T08:26:09.814Z,100.00
2019-03-03T08:28:35.656Z,100.00
2019-03-03T08:31:01.487Z,100.00
2019-03-03T08:33:27.333Z,100.00
2019-03-03T08:35:53.153Z,100.00
2019-03-03T08:38:18.969Z,100.00
2019-03-03T08:41:04.760Z,100.00
2019-03-03T08:43:50.467Z,100.00
2019-03-03T08:54:54.714Z,100.00
2019-03-03T08:57:40.407Z,100.00
2019-03-03T09:00:47.898Z,100.00
2019-03-03T09:03:33.608Z,100.00
2019-03-03T09:06:39.210Z,99.66
2019-03-03T09:09:44.786Z,100.00
2019-03-03T09:18:11.838Z,100.00
2019-03-03T09:26:12.096Z,99.97
2019-03-03T09:32:05.038Z,99.52
2019-03-03T09:35:10.623Z,100.00
2019-03-03T09:38:16.230Z,100.00
2019-03-03T09:41:01.927Z,100.00
2019-03-03T09:44:07.526Z,100.00
2019-03-03T09:46:53.235Z,100.00
2019-03-03T09:49:38.928Z,100.00
2019-03-03T09:52:24.662Z,100.00
2019-03-03T09:55:30.243Z,100.00
2019-03-03T09:58:15.969Z,100.00
2019-03-03T10:01:21.552Z,100.00
2019-03-03T10:04:07.266Z,100.00
2019-03-03T10:06:52.974Z,100.00
2019-03-03T10:10:00.470Z,100.00
2019-03-03T10:12:46.225Z,100.00
2019-03-03T10:15:51.807Z,100.00
2019-03-03T10:24:25.011Z,100.00
2019-03-03T10:27:10.684Z,100.00
2019-03-03T10:33:10.151Z,98.98
2019-03-03T10:35:55.872Z,98.98
2019-03-03T10:39:01.459Z,97.64
2019-03-03T10:42:07.038Z,97.42
2019-03-03T10:47:46.304Z,97.26
2019-03-03T10:53:25.421Z,95.88
2019-03-03T10:56:11.129Z,95.59
2019-03-03T10:58:56.926Z,95.27
2019-03-03T11:02:02.530Z,93.08
2019-03-03T11:04:48.229Z,93.08
2019-03-03T11:07:33.946Z,94.02
2019-03-03T11:13:26.960Z,93.05
2019-03-03T11:16:12.667Z,93.05
2019-03-03T11:18:58.364Z,92.49
2019-03-03T11:24:57.429Z,91.08
2019-03-03T11:28:03.032Z,90.45
2019-03-03T11:30:48.759Z,90.45
2019-03-03T11:33:34.445Z,90.05
2019-03-03T11:36:40.143Z,90.66
2019-03-03T11:39:47.605Z,90.89
2019-03-03T11:42:53.214Z,89.94
2019-03-03T11:48:46.160Z,89.76
2019-03-03T11:51:44.949Z,90.68
2019-03-03T11:57:33.531Z,88.58
2019-03-03T12:00:32.295Z,88.56
2019-03-03T12:03:13.598Z,89.55
2019-03-03T12:05:59.591Z,89.55
2019-03-03T12:08:45.299Z,87.78
2019-03-03T12:11:30.998Z,86.88
2019-03-03T12:14:16.706Z,87.84
2019-03-03T12:17:02.394Z,87.58
2019-03-03T12:20:07.998Z,87.67
2019-03-03T12:22:53.706Z,87.67
2019-03-03T12:25:59.278Z,87.88
2019-03-03T12:28:44.987Z,87.88
2019-03-03T12:34:18.027Z,86.48
2019-03-03T12:37:23.618Z,87.13
2019-03-03T12:40:29.624Z,86.86
2019-03-03T12:46:42.428Z,86.37
2019-03-03T12:49:28.170Z,86.37
2019-03-03T12:52:26.917Z,85.88
2019-03-03T12:55:12.674Z,86.33
2019-03-03T12:57:58.367Z,86.33
2019-03-03T13:03:37.740Z,86.00
2019-03-03T13:06:43.329Z,86.27
2019-03-03T13:09:49.036Z,86.27
2019-03-03T13:15:32.699Z,87.89
2019-03-03T13:18:18.400Z,87.89
2019-03-03T13:21:04.381Z,87.33
2019-03-03T13:24:09.987Z,87.51
2019-03-03T13:27:15.674Z,87.51
2019-03-03T13:30:01.394Z,87.36
2019-03-03T13:33:07.098Z,86.97
2019-03-03T13:39:00.278Z,86.87
2019-03-03T13:42:05.870Z,85.81
2019-03-03T13:44:31.709Z,85.81
2019-03-03T13:46:57.531Z,86.59
2019-03-03T13:49:23.371Z,86.54
2019-03-03T13:51:49.196Z,86.32
2019-03-03T13:54:15.035Z,86.88
2019-03-03T13:56:40.859Z,86.27
2019-03-03T13:59:06.712Z,86.92
2019-03-03T14:01:32.515Z,86.98
2019-03-03T14:04:18.352Z,86.66
2019-03-03T14:07:04.043Z,87.13
2019-03-03T14:09:29.898Z,87.13
2019-03-03T14:11:55.727Z,87.58
2019-03-03T14:14:21.559Z,87.35
2019-03-03T14:16:47.403Z,87.98
2019-03-03T14:19:54.904Z,87.35
2019-03-03T14:22:20.753Z,87.99
2019-03-03T14:24:46.569Z,88.27
2019-03-03T14:27:12.442Z,88.81
2019-03-03T14:29:38.261Z,88.57
2019-03-03T14:32:04.084Z,88.26
2019-03-03T14:34:29.898Z,88.44
2019-03-03T14:36:55.737Z,88.21
2019-03-03T14:39:21.574Z,88.85
2019-03-03T14:41:47.429Z,89.32
2019-03-03T14:44:13.255Z,89.29
2019-03-03T14:46:46.036Z,89.21
2019-03-03T14:49:11.880Z,89.32
2019-03-03T14:51:37.708Z,89.61
2019-03-03T14:54:03.919Z,89.99
2019-03-03T14:56:49.629Z,89.63
2019-03-03T14:59:35.348Z,89.59
2019-03-03T15:02:01.184Z,89.59
2019-03-03T15:04:27.029Z,90.48
2019-03-03T15:06:52.844Z,90.16
2019-03-03T15:09:38.565Z,89.87
2019-03-03T15:12:04.403Z,90.17
2019-03-03T15:14:50.240Z,90.17
2019-03-03T15:17:35.967Z,90.08
2019-03-03T15:20:43.478Z,90.08
2019-03-03T15:23:09.423Z,89.99
2019-03-03T15:25:35.365Z,90.09
2019-03-03T15:28:01.206Z,89.54
2019-03-03T15:30:27.020Z,89.92
2019-03-03T15:32:52.856Z,90.17
2019-03-03T15:35:38.555Z,89.97
2019-03-03T15:40:56.791Z,89.91
2019-03-03T15:43:42.524Z,89.10
2019-03-03T15:46:28.252Z,90.88
2019-03-03T15:48:54.109Z,90.88
2019-03-03T15:51:19.966Z,89.48
2019-03-03T15:53:45.811Z,89.31
2019-03-03T15:56:11.648Z,89.06
2019-03-03T15:58:37.508Z,88.22
2019-03-03T16:01:44.975Z,88.40
2019-03-03T16:04:30.707Z,86.87
2019-03-03T16:07:16.416Z,85.73
2019-03-03T16:10:03.362Z,85.10
2019-03-03T16:12:29.199Z,85.10
2019-03-03T16:14:55.010Z,85.63
2019-03-03T16:17:20.871Z,84.97
2019-03-03T16:20:06.670Z,85.55
2019-03-03T16:22:52.395Z,84.47
2019-03-03T16:25:59.913Z,84.47
2019-03-03T16:28:25.737Z,84.42
2019-03-03T16:30:51.560Z,84.29
2019-03-03T16:33:20.890Z,84.18
2019-03-03T16:35:45.138Z,84.46
2019-03-03T16:38:10.980Z,84.46
2019-03-03T16:40:39.843Z,84.94
2019-03-03T16:43:04.616Z,84.44
2019-03-03T16:46:12.088Z,84.78
2019-03-03T16:48:37.982Z,84.93
2019-03-03T16:51:03.924Z,84.93
2019-03-03T16:53:29.764Z,85.09
2019-03-03T16:55:55.608Z,85.39
2019-03-03T16:58:21.477Z,85.50
2019-03-03T17:00:47.297Z,85.61
2019-03-03T17:03:13.135Z,85.61
2019-03-03T17:05:38.988Z,85.95
2019-03-03T17:08:04.818Z,86.07
2019-03-03T17:10:30.672Z,85.90
2019-03-03T17:12:56.496Z,85.89
2019-03-03T17:16:03.987Z,86.14
2019-03-03T17:18:30.185Z,86.56
2019-03-03T17:20:56.018Z,86.15
2019-03-03T17:23:21.814Z,86.46
2019-03-03T17:25:47.701Z,86.69
2019-03-03T17:28:13.477Z,86.86
2019-03-03T17:30:39.337Z,86.96
2019-03-03T17:33:05.259Z,87.12
2019-03-03T17:35:31.134Z,86.92
2019-03-03T17:37:57.038Z,86.71
2019-03-03T17:41:04.541Z,87.18
2019-03-03T17:43:30.396Z,87.00
2019-03-03T17:45:56.219Z,87.57
2019-03-03T17:48:22.077Z,86.95
2019-03-03T17:50:47.902Z,87.42
2019-03-03T17:53:13.744Z,86.97
2019-03-03T17:55:39.571Z,87.22
2019-03-03T17:58:25.395Z,87.52
2019-03-03T18:00:51.214Z,87.11
2019-03-03T18:03:17.034Z,86.81
2019-03-03T18:05:43.134Z,86.86
2019-03-03T18:08:08.960Z,87.37
2019-03-03T18:10:34.793Z,87.27
2019-03-03T18:13:00.622Z,87.70
2019-03-03T18:15:26.475Z,87.80
2019-03-03T18:17:52.382Z,87.89
2019-03-03T18:20:59.876Z,87.66
2019-03-03T18:23:45.573Z,89.56
2019-03-03T18:26:53.064Z,89.56
2019-03-03T18:29:18.897Z,88.45
2019-03-03T18:31:44.733Z,88.98
2019-03-03T18:34:10.558Z,89.05
2019-03-03T18:36:36.424Z,88.83
2019-03-03T18:39:43.897Z,89.59
2019-03-03T18:42:09.744Z,89.40
2019-03-03T18:44:35.554Z,89.49
2019-03-03T18:47:01.422Z,89.50
2019-03-03T18:49:27.288Z,89.23
2019-03-03T18:51:53.092Z,89.15
2019-03-03T18:54:18.925Z,88.95
2019-03-03T18:56:44.745Z,88.88
2019-03-03T18:59:10.586Z,88.95
2019-03-03T19:04:43.638Z,89.22
2019-03-03T19:07:29.420Z,89.18
2019-03-03T19:09:55.268Z,89.21
2019-03-03T19:12:21.094Z,89.53
2019-03-03T19:14:46.928Z,90.02
2019-03-03T19:17:12.772Z,89.44
2019-03-03T19:19:38.637Z,89.97
2019-03-03T19:22:04.460Z,89.62
2019-03-03T19:24:30.299Z,89.90
2019-03-03T19:26:56.120Z,90.04
2019-03-03T19:29:21.957Z,90.49
2019-03-03T19:31:47.810Z,90.67
2019-03-03T19:34:13.648Z,90.82
2019-03-03T19:36:39.479Z,90.84
2019-03-03T19:39:25.310Z,90.67
2019-03-03T19:41:51.160Z,90.37
2019-03-03T19:44:17.023Z,90.37
2019-03-03T19:46:42.896Z,90.74
2019-03-03T19:49:08.834Z,90.45
2019-03-03T19:54:06.783Z,91.41
2019-03-03T19:56:32.692Z,91.41
2019-03-03T19:58:58.498Z,91.30
2019-03-03T20:01:24.370Z,91.52
2019-03-03T20:04:31.843Z,91.22
2019-03-03T20:06:57.712Z,91.52
2019-03-03T20:09:23.569Z,91.14
2019-03-03T20:11:49.438Z,91.08
2019-03-03T20:14:15.263Z,90.93
2019-03-03T20:16:41.145Z,91.02
2019-03-03T20:19:06.998Z,90.72
2019-03-03T20:21:33.123Z,90.49
2019-03-03T20:23:59.019Z,90.36
2019-03-03T20:26:24.897Z,90.45
2019-03-03T20:28:50.877Z,90.54
2019-03-03T20:31:16.714Z,91.08
2019-03-03T20:33:42.553Z,91.04
2019-03-03T20:36:08.382Z,91.99
2019-03-03T20:38:34.248Z,91.40
2019-03-03T20:41:00.091Z,90.66
2019-03-03T20:43:25.993Z,90.74
2019-03-03T20:45:51.962Z,90.90
2019-03-03T20:48:17.825Z,90.94
2019-03-03T20:50:43.666Z,90.99
2019-03-03T20:53:09.552Z,92.55
2019-03-03T20:55:35.399Z,93.54
2019-03-03T20:58:01.246Z,94.38
2019-03-03T21:01:08.736Z,94.73
2019-03-03T21:03:34.563Z,94.88
2019-03-03T21:06:00.403Z,94.71
2019-03-03T21:08:26.233Z,93.66
2019-03-03T21:10:52.075Z,93.25
2019-03-03T21:13:17.905Z,93.66
2019-03-03T21:15:43.743Z,94.46
2019-03-03T21:18:09.577Z,94.32
2019-03-03T21:20:35.431Z,94.11
2019-03-03T21:23:01.263Z,94.65
2019-03-03T21:25:27.104Z,94.15
2019-03-03T21:27:52.948Z,94.41
2019-03-03T21:30:38.643Z,93.25
2019-03-03T21:33:04.498Z,93.98
2019-03-03T21:35:30.332Z,94.41
2019-03-03T21:37:56.172Z,95.08
2019-03-03T21:41:03.648Z,95.45
2019-03-03T21:43:29.493Z,95.91
2019-03-03T21:45:55.323Z,95.65
2019-03-03T21:48:21.155Z,95.37
2019-03-03T21:50:46.989Z,95.20
2019-03-03T21:53:12.844Z,93.28
2019-03-03T21:55:38.681Z,93.81
2019-03-03T21:58:04.869Z,94.20
2019-03-03T22:00:50.575Z,94.25
2019-03-03T22:03:36.292Z,93.80
2019-03-03T22:06:02.152Z,93.80
2019-03-03T22:08:27.953Z,91.53
2019-03-03T22:10:53.798Z,91.17
2019-03-03T22:13:19.623Z,92.39
2019-03-03T22:15:45.460Z,93.62
2019-03-03T22:18:11.294Z,91.25
2019-03-03T22:20:37.133Z,89.24
2019-03-03T22:23:03.150Z,89.19
2019-03-03T22:25:48.964Z,88.74
2019-03-03T22:28:14.806Z,88.60
2019-03-03T22:30:40.634Z,88.62
2019-03-03T22:33:06.457Z,88.37
2019-03-03T22:35:32.283Z,88.06
2019-03-03T22:37:58.126Z,88.07
2019-03-03T22:41:05.599Z,87.93
2019-03-03T22:43:51.321Z,87.42
2019-03-03T22:46:17.139Z,87.42
2019-03-03T22:48:42.958Z,87.20
2019-03-03T22:51:08.793Z,87.37
2019-03-03T22:53:34.962Z,87.52
2019-03-03T22:56:00.790Z,87.34
2019-03-03T22:58:26.632Z,86.93
2019-03-03T23:01:34.092Z,86.83
2019-03-03T23:04:41.601Z,86.50
2019-03-03T23:07:47.179Z,86.50
2019-03-03T23:10:52.801Z,86.24
2019-03-03T23:14:00.291Z,86.24
2019-03-03T23:17:07.791Z,85.02
2019-03-03T23:20:15.268Z,85.02
2019-03-03T23:23:20.829Z,85.67
2019-03-03T23:29:00.073Z,85.04
2019-03-03T23:31:25.904Z,85.35
2019-03-03T23:33:51.726Z,85.19
2019-03-03T23:36:17.564Z,84.92
2019-03-03T23:38:43.386Z,85.01
2019-03-03T23:41:09.201Z,84.89
2019-03-03T23:43:35.008Z,85.30
2019-03-03T23:46:00.894Z,85.44
2019-03-03T23:48:26.723Z,84.73
2019-03-03T23:50:52.582Z,84.73
2019-03-03T23:53:18.422Z,84.61
2019-03-03T23:55:44.252Z,84.92
2019-03-03T23:58:10.088Z,84.98
